Daikoku — JD3247 — position and weather

sailwx.info

Track history (hours):
 
Tides and Currents Weather Stations Pressure Air Temp Water Temp Dewpoint Dewpoint Depression Visibility Wind Speed Wind Dir Waves Ship Positions

Daikoku

Last reported at 2016-May-06 06:33 UTC. Time now 2016-May-06 16:47 UTC.
Position N 34°36' E 135°03'.

Length 95 m; draft 4.2 m.

Type: Cargo ship. MMSI: 431003009.

Date/timePositionNaut miles runAvg speedWind from/ knotsBaromVisibWave heightAir tempDewpointWater temp
2016-May-06 06:33N 34°36' E 135°03'1211.9
2016-May-06 05:33N 34°38' E 135°18'3 2.8
2016-May-06 04:32N 34°41' E 135°17'2 2.0
2016-May-06 03:33N 34°40' E 135°19'1 0.9
2016-May-06 02:30N 34°39' E 135°19'0 0.2
2016-May-06 01:33N 34°39' E 135°19'4 3.5
2016-May-06 00:31N 34°39' E 135°15'3 2.6
2016-May-05 23:33N 34°41' E 135°12'0 0.0
2016-May-05 22:33N 34°41' E 135°12'0 0.0
2016-May-05 21:33N 34°41' E 135°12'0 0.0
2016-May-05 20:33N 34°41' E 135°12'0 0.0
2016-May-05 19:33N 34°41' E 135°12'0 0.0
2016-May-05 18:33N 34°41' E 135°12'0 0.0
2016-May-05 17:33N 34°41' E 135°12'0 0.0
2016-May-05 16:33N 34°41' E 135°12'0 0.0
2016-May-05 15:33N 34°41' E 135°12'0 0.0
2016-May-05 14:33N 34°41' E 135°12'0 0.0
2016-May-05 13:33N 34°41' E 135°12'0 0.0
2016-May-05 12:33N 34°41' E 135°12'0 0.0
2016-May-05 11:33N 34°41' E 135°12'0 0.0
2016-May-05 10:33N 34°41' E 135°12'0 0.0
2016-May-05 09:33N 34°41' E 135°12'0 0.0
2016-May-05 08:27N 34°41' E 135°12'0 0.0
2016-May-05 07:33N 34°41' E 135°12'0 0.0
2016-May-05 06:33N 34°41' E 135°12'0 0.0
2016-May-05 05:33N 34°41' E 135°12'0 0.0
2016-May-05 04:21N 34°41' E 135°12'0 0.0
2016-May-05 03:32N 34°41' E 135°12'0 0.0
2016-May-05 02:32N 34°41' E 135°12'0 0.0
2016-May-05 01:33N 34°41' E 135°12'1 0.9
2016-May-05 00:33N 34°41' E 135°13'2 2.2
2016-May-04 23:33N 34°39' E 135°15'2 1.9
2016-May-04 22:17N 34°37' E 135°15'0 0.1
2016-May-04 21:28N 34°37' E 135°15'0 0.0
2016-May-04 20:29N 34°37' E 135°15'0 0.0
2016-May-04 19:29N 34°37' E 135°15'0 0.0
2016-May-04 18:28N 34°37' E 135°15'0 0.0
2016-May-04 17:29N 34°37' E 135°15'0 0.0
2016-May-04 16:29N 34°37' E 135°15'0 0.0
2016-May-04 15:29N 34°37' E 135°15'0 0.0
2016-May-04 14:29N 34°37' E 135°15'0 0.0
2016-May-04 13:29N 34°37' E 135°15'0 0.0
2016-May-04 12:23N 34°37' E 135°15'0 0.0
2016-May-04 11:28N 34°37' E 135°15'1 1.2
2016-May-04 10:33N 34°36' E 135°15'1412.0
2016-May-04 09:26N 34°37' E 134°58'21511.2
2016-May-03 14:10N 33°58' E 130°42'1811.2
2016-May-03 12:33N 33°49' E 130°23'1010.5
2016-May-03 11:34N 33°40' E 130°17'6 6.2
2016-May-03 10:33N 33°39' E 130°24'0 0.0
2016-May-03 09:33N 33°39' E 130°24'0 0.0
2016-May-03 08:33N 33°39' E 130°24'0 0.0
2016-May-03 07:33N 33°39' E 130°24'0 0.0
2016-May-03 06:33N 33°39' E 130°24'0 0.0
2016-May-03 05:33N 33°39' E 130°24'2 2.3
2016-May-03 04:33N 33°38' E 130°22'7 7.4
2016-May-03 03:33N 33°45' E 130°18'1110.6
2016-May-03 02:32N 33°53' E 130°27'1310.5
2016-May-03 01:18N 33°58' E 130°41'21911.1
2016-May-02 05:33N 34°37' E 135°02'1111.2
2016-May-02 04:33N 34°38' E 135°15'4 3.8
2016-May-02 03:33N 34°41' E 135°13'1 0.8
2016-May-02 02:33N 34°41' E 135°12'0 0.0
2016-May-02 01:33N 34°41' E 135°12'0 0.0
2016-May-02 00:33N 34°41' E 135°12'0 0.0
2016-May-01 23:33N 34°41' E 135°12'0 0.0
2016-May-01 22:33N 34°41' E 135°12'0 0.0
2016-May-01 21:33N 34°41' E 135°12'0 0.0
2016-May-01 20:33N 34°41' E 135°12'0 0.0
2016-May-01 19:33N 34°41' E 135°12'0 0.0
2016-May-01 18:33N 34°41' E 135°12'0 0.0
2016-May-01 17:33N 34°41' E 135°12'0 0.0
2016-May-01 16:33N 34°41' E 135°12'0 0.0
2016-May-01 15:33N 34°41' E 135°12'0 0.0
2016-May-01 14:33N 34°41' E 135°12'0 0.0
2016-May-01 13:33N 34°41' E 135°12'0 0.0
2016-May-01 12:33N 34°41' E 135°12'0 0.0
2016-May-01 11:33N 34°41' E 135°12'0 0.0
2016-May-01 10:27N 34°41' E 135°12'0 0.0
2016-May-01 09:33N 34°41' E 135°12'0 0.0
2016-May-01 08:33N 34°41' E 135°12'0 0.0
2016-May-01 07:32N 34°41' E 135°12'0 0.0
2016-May-01 06:32N 34°41' E 135°12'0 0.0
2016-May-01 05:32N 34°41' E 135°12'0 0.0
2016-May-01 04:33N 34°41' E 135°12'0 0.0
2016-May-01 03:33N 34°41' E 135°12'0 0.0
2016-May-01 02:33N 34°41' E 135°12'0 0.0
2016-May-01 01:33N 34°41' E 135°12'0 0.0
2016-May-01 00:33N 34°41' E 135°12'0 0.0
2016-Apr-30 23:33N 34°41' E 135°12'0 0.0
2016-Apr-30 22:33N 34°41' E 135°12'0 0.0
2016-Apr-30 21:27N 34°41' E 135°12'0 0.0
2016-Apr-30 20:32N 34°41' E 135°12'0 0.0
2016-Apr-30 19:33N 34°41' E 135°12'0 0.0
2016-Apr-30 18:27N 34°41' E 135°12'0 0.0
2016-Apr-30 17:32N 34°41' E 135°12'0 0.0
2016-Apr-30 16:33N 34°41' E 135°12'0 0.0
2016-Apr-30 15:32N 34°41' E 135°12'0 0.0
2016-Apr-30 14:32N 34°41' E 135°12'0 0.0
2016-Apr-30 13:14N 34°41' E 135°12'0 0.0
2016-Apr-30 12:20N 34°41' E 135°12'0 0.0
2016-Apr-30 11:26N 34°41' E 135°12'0 0.0
2016-Apr-30 10:32N 34°41' E 135°12'0 0.0
2016-Apr-30 09:26N 34°41' E 135°12'0 0.0
2016-Apr-30 08:32N 34°41' E 135°12'0 0.0
2016-Apr-30 07:32N 34°41' E 135°12'0 0.0
2016-Apr-30 06:32N 34°41' E 135°12'0 0.0
2016-Apr-30 05:32N 34°41' E 135°12'0 0.0
2016-Apr-30 04:32N 34°41' E 135°12'0 0.0
2016-Apr-30 03:32N 34°41' E 135°12'0 0.0
2016-Apr-30 02:32N 34°41' E 135°12'0 0.0
2016-Apr-30 01:26N 34°41' E 135°12'0 0.0
2016-Apr-30 00:32N 34°41' E 135°12'0 0.0
2016-Apr-29 23:32N 34°41' E 135°12'0 0.0
2016-Apr-29 22:20N 34°41' E 135°12'0 0.0
2016-Apr-29 21:32N 34°41' E 135°12'0 0.0
2016-Apr-29 20:32N 34°41' E 135°12'0 0.0
2016-Apr-29 19:32N 34°41' E 135°12'0 0.0
2016-Apr-29 18:26N 34°41' E 135°12'0 0.0
2016-Apr-29 17:20N 34°41' E 135°12'0 0.0
2016-Apr-29 16:32N 34°41' E 135°12'0 0.0
2016-Apr-29 15:32N 34°41' E 135°12'0 0.0
2016-Apr-29 14:20N 34°41' E 135°12'0 0.0
2016-Apr-29 13:32N 34°41' E 135°12'0 0.0
2016-Apr-29 12:20N 34°41' E 135°12'0 0.0
2016-Apr-29 11:32N 34°41' E 135°12'0 0.0
2016-Apr-29 10:32N 34°41' E 135°12'0 0.0
2016-Apr-29 09:32N 34°41' E 135°12'0 0.0
2016-Apr-29 08:32N 34°41' E 135°12'0 0.0
2016-Apr-29 07:32N 34°41' E 135°12'0 0.0
2016-Apr-29 06:32N 34°41' E 135°12'0 0.0
2016-Apr-29 05:32N 34°41' E 135°12'3 2.8
2016-Apr-29 04:33N 34°39' E 135°15'2 1.6
2016-Apr-29 03:33N 34°38' E 135°16'2 1.8
2016-Apr-29 02:25N 34°37' E 135°18'0 0.0
2016-Apr-29 01:31N 34°37' E 135°18'0 0.1
2016-Apr-29 00:33N 34°37' E 135°18'4 3.8
2016-Apr-28 23:33N 34°41' E 135°17'4 3.8
2016-Apr-28 22:30N 34°37' E 135°16'0 0.0
2016-Apr-28 21:30N 34°37' E 135°16'0 0.0
2016-Apr-28 20:30N 34°37' E 135°16'6 6.4
2016-Apr-28 19:33N 34°34' E 135°09'1110.8
2016-Apr-28 18:34N 34°36' E 134°56'4 0.1
2016-Apr-27 09:09N 34°37' E 135°01'5 8.5
2016-Apr-27 08:33N 34°36' E 135°07'7 7.4
2016-Apr-27 07:33N 34°39' E 135°15'0 0.0
2016-Apr-27 06:33N 34°39' E 135°15'3 2.9
2016-Apr-27 05:30N 34°37' E 135°18'4 3.3
2016-Apr-27 04:24N 34°41' E 135°17'0 0.1
2016-Apr-27 03:30N 34°41' E 135°17'0 0.5
2016-Apr-27 02:33N 34°41' E 135°16'2 1.9
2016-Apr-27 01:33N 34°39' E 135°14'3 1.1
2016-Apr-26 23:04N 34°37' E 135°15'0 0.0
2016-Apr-26 22:22N 34°37' E 135°15'2 1.9
2016-Apr-26 21:33N 34°35' E 135°14'1211.7
2016-Apr-26 20:33N 34°37' E 134°60'  
Track history (hours):
 
Tides and Currents Weather Stations Pressure Air Temp Water Temp Dewpoint Dewpoint Depression Visibility Wind Speed Wind Dir Waves Ship Positions

Daikoku

Last reported at 2016-May-06 06:33 UTC. Time now 2016-May-06 16:47 UTC.
Position N 34°36' E 135°03'.

Length 95 m; draft 4.2 m.

Type: Cargo ship. MMSI: 431003009.

Date/timePositionNaut miles runAvg speedWind from/ knotsBaromVisibWave heightAir tempDewpointWater temp
2016-May-06 06:33N 34°36' E 135°03'1211.9
2016-May-06 05:33N 34°38' E 135°18'3 2.8
2016-May-06 04:32N 34°41' E 135°17'2 2.0
2016-May-06 03:33N 34°40' E 135°19'1 0.9
2016-May-06 02:30N 34°39' E 135°19'0 0.2
2016-May-06 01:33N 34°39' E 135°19'4 3.5
2016-May-06 00:31N 34°39' E 135°15'3 2.6
2016-May-05 23:33N 34°41' E 135°12'0 0.0
2016-May-05 22:33N 34°41' E 135°12'0 0.0
2016-May-05 21:33N 34°41' E 135°12'0 0.0
2016-May-05 20:33N 34°41' E 135°12'0 0.0
2016-May-05 19:33N 34°41' E 135°12'0 0.0
2016-May-05 18:33N 34°41' E 135°12'0 0.0
2016-May-05 17:33N 34°41' E 135°12'0 0.0
2016-May-05 16:33N 34°41' E 135°12'0 0.0
2016-May-05 15:33N 34°41' E 135°12'0 0.0
2016-May-05 14:33N 34°41' E 135°12'0 0.0
2016-May-05 13:33N 34°41' E 135°12'0 0.0
2016-May-05 12:33N 34°41' E 135°12'0 0.0
2016-May-05 11:33N 34°41' E 135°12'0 0.0
2016-May-05 10:33N 34°41' E 135°12'0 0.0
2016-May-05 09:33N 34°41' E 135°12'0 0.0
2016-May-05 08:27N 34°41' E 135°12'0 0.0
2016-May-05 07:33N 34°41' E 135°12'0 0.0
2016-May-05 06:33N 34°41' E 135°12'0 0.0
2016-May-05 05:33N 34°41' E 135°12'0 0.0
2016-May-05 04:21N 34°41' E 135°12'0 0.0
2016-May-05 03:32N 34°41' E 135°12'0 0.0
2016-May-05 02:32N 34°41' E 135°12'0 0.0
2016-May-05 01:33N 34°41' E 135°12'1 0.9
2016-May-05 00:33N 34°41' E 135°13'2 2.2
2016-May-04 23:33N 34°39' E 135°15'2 1.9
2016-May-04 22:17N 34°37' E 135°15'0 0.1
2016-May-04 21:28N 34°37' E 135°15'0 0.0
2016-May-04 20:29N 34°37' E 135°15'0 0.0
2016-May-04 19:29N 34°37' E 135°15'0 0.0
2016-May-04 18:28N 34°37' E 135°15'0 0.0
2016-May-04 17:29N 34°37' E 135°15'0 0.0
2016-May-04 16:29N 34°37' E 135°15'0 0.0
2016-May-04 15:29N 34°37' E 135°15'0 0.0
2016-May-04 14:29N 34°37' E 135°15'0 0.0
2016-May-04 13:29N 34°37' E 135°15'0 0.0
2016-May-04 12:23N 34°37' E 135°15'0 0.0
2016-May-04 11:28N 34°37' E 135°15'1 1.2
2016-May-04 10:33N 34°36' E 135°15'1412.0
2016-May-04 09:26N 34°37' E 134°58'21511.2
2016-May-03 14:10N 33°58' E 130°42'1811.2
2016-May-03 12:33N 33°49' E 130°23'1010.5
2016-May-03 11:34N 33°40' E 130°17'6 6.2
2016-May-03 10:33N 33°39' E 130°24'0 0.0
2016-May-03 09:33N 33°39' E 130°24'0 0.0
2016-May-03 08:33N 33°39' E 130°24'0 0.0
2016-May-03 07:33N 33°39' E 130°24'0 0.0
2016-May-03 06:33N 33°39' E 130°24'0 0.0
2016-May-03 05:33N 33°39' E 130°24'2 2.3
2016-May-03 04:33N 33°38' E 130°22'7 7.4
2016-May-03 03:33N 33°45' E 130°18'1110.6
2016-May-03 02:32N 33°53' E 130°27'1310.5
2016-May-03 01:18N 33°58' E 130°41'21911.1
2016-May-02 05:33N 34°37' E 135°02'1111.2
2016-May-02 04:33N 34°38' E 135°15'4 3.8
2016-May-02 03:33N 34°41' E 135°13'1 0.8
2016-May-02 02:33N 34°41' E 135°12'0 0.0
2016-May-02 01:33N 34°41' E 135°12'0 0.0
2016-May-02 00:33N 34°41' E 135°12'0 0.0
2016-May-01 23:33N 34°41' E 135°12'0 0.0
2016-May-01 22:33N 34°41' E 135°12'0 0.0
2016-May-01 21:33N 34°41' E 135°12'0 0.0
2016-May-01 20:33N 34°41' E 135°12'0 0.0
2016-May-01 19:33N 34°41' E 135°12'0 0.0
2016-May-01 18:33N 34°41' E 135°12'0 0.0
2016-May-01 17:33N 34°41' E 135°12'0 0.0
2016-May-01 16:33N 34°41' E 135°12'0 0.0
2016-May-01 15:33N 34°41' E 135°12'0 0.0
2016-May-01 14:33N 34°41' E 135°12'0 0.0
2016-May-01 13:33N 34°41' E 135°12'0 0.0
2016-May-01 12:33N 34°41' E 135°12'0 0.0
2016-May-01 11:33N 34°41' E 135°12'0 0.0
2016-May-01 10:27N 34°41' E 135°12'0 0.0
2016-May-01 09:33N 34°41' E 135°12'0 0.0
2016-May-01 08:33N 34°41' E 135°12'0 0.0
2016-May-01 07:32N 34°41' E 135°12'0 0.0
2016-May-01 06:32N 34°41' E 135°12'0 0.0
2016-May-01 05:32N 34°41' E 135°12'0 0.0
2016-May-01 04:33N 34°41' E 135°12'0 0.0
2016-May-01 03:33N 34°41' E 135°12'0 0.0
2016-May-01 02:33N 34°41' E 135°12'0 0.0
2016-May-01 01:33N 34°41' E 135°12'0 0.0
2016-May-01 00:33N 34°41' E 135°12'0 0.0
2016-Apr-30 23:33N 34°41' E 135°12'0 0.0
2016-Apr-30 22:33N 34°41' E 135°12'0 0.0
2016-Apr-30 21:27N 34°41' E 135°12'0 0.0
2016-Apr-30 20:32N 34°41' E 135°12'0 0.0
2016-Apr-30 19:33N 34°41' E 135°12'0 0.0
2016-Apr-30 18:27N 34°41' E 135°12'0 0.0
2016-Apr-30 17:32N 34°41' E 135°12'0 0.0
2016-Apr-30 16:33N 34°41' E 135°12'0 0.0
2016-Apr-30 15:32N 34°41' E 135°12'0 0.0
2016-Apr-30 14:32N 34°41' E 135°12'0 0.0
2016-Apr-30 13:14N 34°41' E 135°12'0 0.0
2016-Apr-30 12:20N 34°41' E 135°12'0 0.0
2016-Apr-30 11:26N 34°41' E 135°12'0 0.0
2016-Apr-30 10:32N 34°41' E 135°12'0 0.0
2016-Apr-30 09:26N 34°41' E 135°12'0 0.0
2016-Apr-30 08:32N 34°41' E 135°12'0 0.0
2016-Apr-30 07:32N 34°41' E 135°12'0 0.0
2016-Apr-30 06:32N 34°41' E 135°12'0 0.0
2016-Apr-30 05:32N 34°41' E 135°12'0 0.0
2016-Apr-30 04:32N 34°41' E 135°12'0 0.0
2016-Apr-30 03:32N 34°41' E 135°12'0 0.0
2016-Apr-30 02:32N 34°41' E 135°12'0 0.0
2016-Apr-30 01:26N 34°41' E 135°12'0 0.0
2016-Apr-30 00:32N 34°41' E 135°12'0 0.0
2016-Apr-29 23:32N 34°41' E 135°12'0 0.0
2016-Apr-29 22:20N 34°41' E 135°12'0 0.0
2016-Apr-29 21:32N 34°41' E 135°12'0 0.0
2016-Apr-29 20:32N 34°41' E 135°12'0 0.0
2016-Apr-29 19:32N 34°41' E 135°12'0 0.0
2016-Apr-29 18:26N 34°41' E 135°12'0 0.0
2016-Apr-29 17:20N 34°41' E 135°12'0 0.0
2016-Apr-29 16:32N 34°41' E 135°12'0 0.0
2016-Apr-29 15:32N 34°41' E 135°12'0 0.0
2016-Apr-29 14:20N 34°41' E 135°12'0 0.0
2016-Apr-29 13:32N 34°41' E 135°12'0 0.0
2016-Apr-29 12:20N 34°41' E 135°12'0 0.0
2016-Apr-29 11:32N 34°41' E 135°12'0 0.0
2016-Apr-29 10:32N 34°41' E 135°12'0 0.0
2016-Apr-29 09:32N 34°41' E 135°12'0 0.0
2016-Apr-29 08:32N 34°41' E 135°12'0 0.0
2016-Apr-29 07:32N 34°41' E 135°12'0 0.0
2016-Apr-29 06:32N 34°41' E 135°12'0 0.0
2016-Apr-29 05:32N 34°41' E 135°12'3 2.8
2016-Apr-29 04:33N 34°39' E 135°15'2 1.6
2016-Apr-29 03:33N 34°38' E 135°16'2 1.8
2016-Apr-29 02:25N 34°37' E 135°18'0 0.0
2016-Apr-29 01:31N 34°37' E 135°18'0 0.1
2016-Apr-29 00:33N 34°37' E 135°18'4 3.8
2016-Apr-28 23:33N 34°41' E 135°17'4 3.8
2016-Apr-28 22:30N 34°37' E 135°16'0 0.0
2016-Apr-28 21:30N 34°37' E 135°16'0 0.0
2016-Apr-28 20:30N 34°37' E 135°16'6 6.4
2016-Apr-28 19:33N 34°34' E 135°09'1110.8
2016-Apr-28 18:34N 34°36' E 134°56'4 0.1
2016-Apr-27 09:09N 34°37' E 135°01'5 8.5
2016-Apr-27 08:33N 34°36' E 135°07'7 7.4
2016-Apr-27 07:33N 34°39' E 135°15'0 0.0
2016-Apr-27 06:33N 34°39' E 135°15'3 2.9
2016-Apr-27 05:30N 34°37' E 135°18'4 3.3
2016-Apr-27 04:24N 34°41' E 135°17'0 0.1
2016-Apr-27 03:30N 34°41' E 135°17'0 0.5
2016-Apr-27 02:33N 34°41' E 135°16'2 1.9
2016-Apr-27 01:33N 34°39' E 135°14'3 1.1
2016-Apr-26 23:04N 34°37' E 135°15'0 0.0
2016-Apr-26 22:22N 34°37' E 135°15'2 1.9
2016-Apr-26 21:33N 34°35' E 135°14'1211.7
2016-Apr-26 20:33N 34°37' E 134°60'  

Dump ship's entire track history